LOG53GT EGTE-EGJJ
Flight info
| Callsign | LOG53GT |
|---|---|
| Flight time | 1h 1m |
| Altitude | 8000 |
| Route | DAWLY L149 BIGNO |
| Aircraft | AT76/M-SDFGIRY/S |
Departure
| Time | 2026-04-25 14:59 |
|---|---|
| Airport | Exeter International Airport (EGTE) |
Arrival
| Time | 2026-04-25 16:00 |
|---|---|
| Airport | Jersey Airport (EGJJ) |
| Time | Latitude | Longitude | Altitude | Speed | Heading |
|---|---|---|---|---|---|
| 2026-04-25 14:46 | 50.73159 | -3.41736 | 108 ft | 0 kts | 131° |
| 2026-04-25 14:53 | 50.73170 | -3.41756 | 108 ft | 4 kts | 145° |
| 2026-04-25 14:53 | 50.73192 | -3.41768 | 105 ft | 4 kts | 202° |
| 2026-04-25 14:53 | 50.73203 | -3.41754 | 104 ft | 1 kts | 239° |
| 2026-04-25 14:54 | 50.73204 | -3.41751 | 104 ft | 0 kts | 239° |
| 2026-04-25 14:55 | 50.73200 | -3.41761 | 104 ft | 2 kts | 238° |
| 2026-04-25 14:55 | 50.73188 | -3.41789 | 104 ft | 4 kts | 236° |
| 2026-04-25 14:55 | 50.73171 | -3.41831 | 105 ft | 5 kts | 238° |
| 2026-04-25 14:56 | 50.73141 | -3.41902 | 104 ft | 22 kts | 233° |
| 2026-04-25 14:56 | 50.73079 | -3.42091 | 105 ft | 4 kts | 247° |
| 2026-04-25 14:56 | 50.73065 | -3.42149 | 106 ft | 12 kts | 248° |
| 2026-04-25 14:56 | 50.73070 | -3.42351 | 105 ft | 20 kts | 271° |
| 2026-04-25 14:57 | 50.73075 | -3.42579 | 105 ft | 20 kts | 276° |
| 2026-04-25 14:57 | 50.73126 | -3.42749 | 107 ft | 17 kts | 322° |
| 2026-04-25 14:57 | 50.73216 | -3.42749 | 107 ft | 9 kts | 66° |
| 2026-04-25 14:57 | 50.73219 | -3.42731 | 107 ft | 0 kts | 75° |
| 2026-04-25 14:58 | 50.73229 | -3.42665 | 107 ft | 28 kts | 75° |
| 2026-04-25 14:58 | 50.73327 | -3.42048 | 107 ft | 88 kts | 77° |
| 2026-04-25 14:58 | 50.73528 | -3.40869 | 203 ft | 124 kts | 76° |
| 2026-04-25 14:58 | 50.73832 | -3.39565 | 615 ft | 136 kts | 70° |
| 2026-04-25 14:59 | 50.74166 | -3.38165 | 1232 ft | 133 kts | 76° |
| 2026-04-25 14:59 | 50.74455 | -3.36723 | 1802 ft | 143 kts | 74° |
| 2026-04-25 14:59 | 50.74591 | -3.35189 | 2341 ft | 145 kts | 107° |
| 2026-04-25 14:59 | 50.73895 | -3.34099 | 2837 ft | 151 kts | 168° |
| 2026-04-25 15:00 | 50.72903 | -3.34463 | 3375 ft | 152 kts | 220° |
| 2026-04-25 15:00 | 50.72103 | -3.35568 | 3949 ft | 157 kts | 220° |
| 2026-04-25 15:00 | 50.71255 | -3.36734 | 4438 ft | 168 kts | 223° |
| 2026-04-25 15:00 | 50.70338 | -3.37952 | 4910 ft | 177 kts | 220° |
| 2026-04-25 15:01 | 50.69312 | -3.39110 | 5374 ft | 186 kts | 215° |
| 2026-04-25 15:01 | 50.68175 | -3.40163 | 5816 ft | 192 kts | 209° |
| 2026-04-25 15:01 | 50.66942 | -3.41052 | 6267 ft | 197 kts | 203° |
| 2026-04-25 15:01 | 50.65644 | -3.41833 | 6687 ft | 202 kts | 201° |
| 2026-04-25 15:02 | 50.64323 | -3.42554 | 7063 ft | 205 kts | 200° |
| 2026-04-25 15:02 | 50.62961 | -3.43285 | 7450 ft | 208 kts | 200° |
| 2026-04-25 15:02 | 50.61588 | -3.44015 | 7836 ft | 208 kts | 200° |
| 2026-04-25 15:02 | 50.60204 | -3.44770 | 8104 ft | 217 kts | 201° |
| 2026-04-25 15:03 | 50.58713 | -3.45544 | 8205 ft | 234 kts | 191° |
| 2026-04-25 15:03 | 50.57069 | -3.45203 | 8220 ft | 248 kts | 155° |
| 2026-04-25 15:03 | 50.55626 | -3.43653 | 8220 ft | 256 kts | 138° |
| 2026-04-25 15:03 | 50.54351 | -3.41641 | 8212 ft | 263 kts | 132° |
| 2026-04-25 15:04 | 50.53117 | -3.39472 | 8211 ft | 268 kts | 131° |
| 2026-04-25 15:04 | 50.51871 | -3.37263 | 8211 ft | 273 kts | 131° |
| 2026-04-25 15:04 | 50.50577 | -3.35053 | 8208 ft | 276 kts | 133° |
| 2026-04-25 15:04 | 50.49241 | -3.32866 | 8206 ft | 279 kts | 133° |
| 2026-04-25 15:05 | 50.47894 | -3.30662 | 8208 ft | 281 kts | 133° |
| 2026-04-25 15:05 | 50.46545 | -3.28438 | 8207 ft | 282 kts | 133° |
| 2026-04-25 15:05 | 50.45181 | -3.26222 | 8206 ft | 283 kts | 134° |
| 2026-04-25 15:06 | 50.42448 | -3.21770 | 8205 ft | 284 kts | 134° |
| 2026-04-25 15:06 | 50.41080 | -3.19539 | 8206 ft | 284 kts | 134° |
| 2026-04-25 15:06 | 50.39712 | -3.17308 | 8204 ft | 284 kts | 134° |
| 2026-04-25 15:06 | 50.38343 | -3.15077 | 8205 ft | 284 kts | 133° |
| 2026-04-25 15:07 | 50.36961 | -3.12884 | 8202 ft | 280 kts | 139° |
| 2026-04-25 15:07 | 50.35291 | -3.11315 | 8207 ft | 281 kts | 154° |
| 2026-04-25 15:07 | 50.33518 | -3.10008 | 8207 ft | 282 kts | 155° |
| 2026-04-25 15:07 | 50.31745 | -3.08696 | 8205 ft | 282 kts | 154° |
| 2026-04-25 15:08 | 50.29995 | -3.07306 | 8202 ft | 282 kts | 152° |
| 2026-04-25 15:08 | 50.28266 | -3.05854 | 8202 ft | 282 kts | 152° |
| 2026-04-25 15:08 | 50.26533 | -3.04412 | 8206 ft | 283 kts | 152° |
| 2026-04-25 15:08 | 50.24795 | -3.02975 | 8205 ft | 282 kts | 152° |
| 2026-04-25 15:09 | 50.23060 | -3.01540 | 8202 ft | 283 kts | 152° |
| 2026-04-25 15:09 | 50.21324 | -3.00102 | 8202 ft | 282 kts | 152° |
| 2026-04-25 15:09 | 50.17875 | -2.97254 | 8203 ft | 282 kts | 152° |
| 2026-04-25 15:10 | 50.16140 | -2.95819 | 8201 ft | 282 kts | 152° |
| 2026-04-25 15:10 | 50.14405 | -2.94386 | 8199 ft | 282 kts | 152° |
| 2026-04-25 15:10 | 50.10930 | -2.91526 | 8201 ft | 283 kts | 152° |
| 2026-04-25 15:11 | 50.09192 | -2.90095 | 8200 ft | 282 kts | 152° |
| 2026-04-25 15:11 | 50.07454 | -2.88667 | 8195 ft | 282 kts | 152° |
| 2026-04-25 15:11 | 50.05718 | -2.87240 | 8198 ft | 282 kts | 152° |
| 2026-04-25 15:12 | 50.02242 | -2.84386 | 8197 ft | 282 kts | 152° |
| 2026-04-25 15:12 | 50.00503 | -2.82969 | 8200 ft | 282 kts | 152° |
| 2026-04-25 15:12 | 49.98735 | -2.81675 | 8197 ft | 281 kts | 159° |
| 2026-04-25 15:12 | 49.98115 | -2.81329 | 8195 ft | 281 kts | 161° |
| 2026-04-25 15:13 | 49.94997 | -2.79866 | 8195 ft | 282 kts | 164° |
| 2026-04-25 15:13 | 49.91252 | -2.78051 | 8193 ft | 282 kts | 162° |
| 2026-04-25 15:13 | 49.89389 | -2.77091 | 8192 ft | 282 kts | 162° |
| 2026-04-25 15:14 | 49.87526 | -2.76144 | 8196 ft | 282 kts | 162° |
| 2026-04-25 15:14 | 49.85662 | -2.75203 | 8194 ft | 282 kts | 162° |
| 2026-04-25 15:14 | 49.83793 | -2.74262 | 8196 ft | 282 kts | 162° |
| 2026-04-25 15:14 | 49.81953 | -2.73339 | 8196 ft | 282 kts | 162° |
| 2026-04-25 15:15 | 49.80083 | -2.72400 | 8194 ft | 282 kts | 162° |
| 2026-04-25 15:15 | 49.78215 | -2.71462 | 8190 ft | 282 kts | 162° |
| 2026-04-25 15:15 | 49.76432 | -2.70576 | 8189 ft | 259 kts | 162° |
| 2026-04-25 15:15 | 49.74802 | -2.69770 | 8185 ft | 234 kts | 162° |
| 2026-04-25 15:16 | 49.73327 | -2.69032 | 8179 ft | 212 kts | 162° |
| 2026-04-25 15:16 | 49.71986 | -2.68353 | 8176 ft | 194 kts | 162° |
| 2026-04-25 15:16 | 49.69874 | -2.67262 | 8436 ft | 144 kts | 160° |
| 2026-04-25 15:17 | 49.68618 | -2.66164 | 8221 ft | 138 kts | 145° |
| 2026-04-25 15:17 | 50.73159 | -3.41736 | 113 ft | 0 kts | 131° |
| 2026-04-25 15:27 | 50.73194 | -3.41768 | 104 ft | 4 kts | 210° |
| 2026-04-25 15:28 | 50.73203 | -3.41754 | 104 ft | 1 kts | 239° |
| 2026-04-25 15:28 | 50.73204 | -3.41751 | 104 ft | 0 kts | 239° |
| 2026-04-25 15:30 | 50.73192 | -3.41782 | 104 ft | 15 kts | 238° |
| 2026-04-25 15:30 | 50.73115 | -3.41993 | 103 ft | 24 kts | 244° |
| 2026-04-25 15:30 | 50.73064 | -3.42216 | 106 ft | 18 kts | 268° |
| 2026-04-25 15:30 | 50.73070 | -3.42478 | 106 ft | 30 kts | 272° |
| 2026-04-25 15:31 | 50.73129 | -3.42742 | 107 ft | 24 kts | 328° |
| 2026-04-25 15:31 | 50.73224 | -3.42707 | 107 ft | 24 kts | 77° |
| 2026-04-25 15:31 | 50.73318 | -3.42130 | 109 ft | 85 kts | 77° |
| 2026-04-25 15:31 | 50.73497 | -3.40958 | 122 ft | 129 kts | 79° |
| 2026-04-25 15:32 | 50.73801 | -3.39593 | 573 ft | 132 kts | 72° |
| 2026-04-25 15:32 | 50.74070 | -3.38107 | 957 ft | 148 kts | 89° |
| 2026-04-25 15:32 | 50.73866 | -3.36466 | 1288 ft | 158 kts | 118° |
| 2026-04-25 15:33 | 50.71881 | -3.35886 | 2033 ft | 176 kts | 216° |
| 2026-04-25 15:33 | 50.70945 | -3.37197 | 2412 ft | 184 kts | 221° |
| 2026-04-25 15:33 | 50.69978 | -3.38566 | 2752 ft | 189 kts | 222° |
| 2026-04-25 15:33 | 50.68975 | -3.39939 | 3118 ft | 193 kts | 220° |
| 2026-04-25 15:34 | 50.67878 | -3.41198 | 3508 ft | 198 kts | 214° |
| 2026-04-25 15:34 | 50.66689 | -3.42323 | 3862 ft | 199 kts | 211° |
| 2026-04-25 15:34 | 50.65449 | -3.43307 | 4218 ft | 201 kts | 205° |
| 2026-04-25 15:34 | 50.64587 | -3.43868 | 4469 ft | 203 kts | 201° |
| 2026-04-25 15:35 | 50.61403 | -3.45224 | 5309 ft | 207 kts | 192° |
| 2026-04-25 15:35 | 50.59988 | -3.45651 | 5664 ft | 208 kts | 191° |
| 2026-04-25 15:35 | 50.58539 | -3.46057 | 6037 ft | 215 kts | 185° |
| 2026-04-25 15:36 | 50.55896 | -3.44079 | 6707 ft | 219 kts | 135° |
| 2026-04-25 15:36 | 50.54831 | -3.42370 | 7041 ft | 220 kts | 131° |
| 2026-04-25 15:36 | 50.53809 | -3.40572 | 7379 ft | 221 kts | 130° |
| 2026-04-25 15:37 | 50.52786 | -3.38764 | 7728 ft | 221 kts | 131° |
| 2026-04-25 15:37 | 50.51742 | -3.36979 | 8033 ft | 225 kts | 132° |
| 2026-04-25 15:37 | 50.50634 | -3.35149 | 8119 ft | 238 kts | 133° |
| 2026-04-25 15:37 | 50.49455 | -3.33232 | 8160 ft | 250 kts | 133° |
| 2026-04-25 15:38 | 50.48230 | -3.31223 | 8181 ft | 259 kts | 133° |
| 2026-04-25 15:38 | 50.46969 | -3.29147 | 8190 ft | 266 kts | 133° |
| 2026-04-25 15:38 | 50.45673 | -3.27031 | 8196 ft | 271 kts | 133° |
| 2026-04-25 15:38 | 50.44355 | -3.24880 | 8197 ft | 275 kts | 133° |
| 2026-04-25 15:39 | 50.43021 | -3.22705 | 8200 ft | 278 kts | 133° |
| 2026-04-25 15:39 | 50.41678 | -3.20513 | 8201 ft | 279 kts | 133° |
| 2026-04-25 15:39 | 50.40327 | -3.18313 | 8202 ft | 281 kts | 133° |
| 2026-04-25 15:39 | 50.38972 | -3.16102 | 8204 ft | 282 kts | 133° |
| 2026-04-25 15:40 | 50.38070 | -3.14632 | 8203 ft | 282 kts | 133° |
| 2026-04-25 15:40 | 50.37166 | -3.13180 | 8200 ft | 280 kts | 136° |
| 2026-04-25 15:40 | 50.34356 | -3.10623 | 8203 ft | 281 kts | 155° |
| 2026-04-25 15:40 | 50.32607 | -3.09341 | 8202 ft | 282 kts | 155° |
| 2026-04-25 15:41 | 50.30842 | -3.07992 | 8202 ft | 283 kts | 153° |
| 2026-04-25 15:41 | 50.29102 | -3.06557 | 8201 ft | 283 kts | 152° |
| 2026-04-25 15:41 | 50.27369 | -3.05102 | 8203 ft | 283 kts | 152° |
| 2026-04-25 15:41 | 50.25628 | -3.03663 | 8199 ft | 283 kts | 152° |
| 2026-04-25 15:42 | 50.23890 | -3.02223 | 8198 ft | 283 kts | 152° |
| 2026-04-25 15:42 | 50.22153 | -3.00788 | 8201 ft | 283 kts | 152° |
| 2026-04-25 15:42 | 50.20415 | -2.99352 | 8200 ft | 283 kts | 152° |
| 2026-04-25 15:42 | 50.18678 | -2.97914 | 8199 ft | 283 kts | 152° |
| 2026-04-25 15:43 | 50.16940 | -2.96479 | 8199 ft | 283 kts | 152° |
| 2026-04-25 15:43 | 50.15203 | -2.95046 | 8199 ft | 283 kts | 152° |
| 2026-04-25 15:43 | 50.13466 | -2.93613 | 8197 ft | 282 kts | 152° |
| 2026-04-25 15:43 | 50.11724 | -2.92181 | 8195 ft | 283 kts | 152° |
| 2026-04-25 15:44 | 50.09989 | -2.90749 | 8199 ft | 282 kts | 152° |
| 2026-04-25 15:44 | 50.08252 | -2.89320 | 8198 ft | 282 kts | 152° |
| 2026-04-25 15:44 | 50.06515 | -2.87895 | 8196 ft | 282 kts | 152° |
| 2026-04-25 15:44 | 50.04777 | -2.86468 | 8194 ft | 282 kts | 152° |
| 2026-04-25 15:45 | 50.03628 | -2.85523 | 8195 ft | 282 kts | 152° |
| 2026-04-25 15:45 | 50.01301 | -2.83620 | 8194 ft | 282 kts | 152° |
| 2026-04-25 15:45 | 49.99566 | -2.82198 | 8194 ft | 281 kts | 152° |
| 2026-04-25 15:45 | 49.98984 | -2.81716 | 8195 ft | 281 kts | 152° |
| 2026-04-25 15:46 | 49.96118 | -2.79325 | 8194 ft | 281 kts | 152° |
| 2026-04-25 15:46 | 49.94386 | -2.77914 | 8192 ft | 281 kts | 152° |
| 2026-04-25 15:46 | 49.92648 | -2.76508 | 8193 ft | 281 kts | 153° |
| 2026-04-25 15:46 | 49.90914 | -2.75110 | 8194 ft | 281 kts | 152° |
| 2026-04-25 15:47 | 49.89177 | -2.73708 | 8195 ft | 282 kts | 153° |
| 2026-04-25 15:47 | 49.87436 | -2.72309 | 8191 ft | 282 kts | 152° |
| 2026-04-25 15:47 | 49.85696 | -2.70905 | 8193 ft | 282 kts | 153° |
| 2026-04-25 15:47 | 49.83955 | -2.69509 | 8190 ft | 282 kts | 152° |
| 2026-04-25 15:48 | 49.82212 | -2.68102 | 8192 ft | 281 kts | 153° |
| 2026-04-25 15:48 | 49.80405 | -2.67247 | 8183 ft | 278 kts | 178° |
| 2026-04-25 15:48 | 49.78486 | -2.67507 | 8189 ft | 278 kts | 188° |
| 2026-04-25 15:48 | 49.76563 | -2.67866 | 8189 ft | 279 kts | 185° |
| 2026-04-25 15:49 | 49.74626 | -2.68018 | 8185 ft | 279 kts | 181° |
| 2026-04-25 15:49 | 49.72683 | -2.67892 | 8181 ft | 280 kts | 176° |
| 2026-04-25 15:49 | 49.70750 | -2.67491 | 8179 ft | 280 kts | 169° |
| 2026-04-25 15:49 | 49.68862 | -2.66742 | 8176 ft | 280 kts | 163° |
| 2026-04-25 15:50 | 49.67614 | -2.66091 | 8173 ft | 280 kts | 161° |
| 2026-04-25 15:50 | 49.65184 | -2.64742 | 8170 ft | 280 kts | 160° |
| 2026-04-25 15:50 | 49.63342 | -2.63745 | 8168 ft | 281 kts | 161° |
| 2026-04-25 15:50 | 49.61480 | -2.62795 | 8167 ft | 282 kts | 162° |
| 2026-04-25 15:51 | 49.59619 | -2.61855 | 8163 ft | 281 kts | 162° |
| 2026-04-25 15:51 | 49.58992 | -2.61539 | 8161 ft | 281 kts | 162° |
| 2026-04-25 15:51 | 49.55901 | -2.59981 | 8160 ft | 281 kts | 162° |
| 2026-04-25 15:51 | 49.54040 | -2.59044 | 8158 ft | 281 kts | 162° |
| 2026-04-25 15:52 | 49.52181 | -2.58104 | 8157 ft | 281 kts | 162° |
| 2026-04-25 15:52 | 49.50321 | -2.57169 | 8158 ft | 278 kts | 162° |
| 2026-04-25 15:52 | 49.48503 | -2.56262 | 7930 ft | 275 kts | 162° |
| 2026-04-25 15:52 | 49.46677 | -2.55350 | 7579 ft | 276 kts | 162° |
| 2026-04-25 15:53 | 49.44846 | -2.54444 | 7243 ft | 277 kts | 162° |
| 2026-04-25 15:53 | 49.43006 | -2.53543 | 6893 ft | 278 kts | 162° |
| 2026-04-25 15:53 | 49.41172 | -2.52622 | 6545 ft | 277 kts | 162° |
| 2026-04-25 15:53 | 49.39334 | -2.51700 | 6142 ft | 278 kts | 162° |
| 2026-04-25 15:54 | 49.37499 | -2.50780 | 5757 ft | 275 kts | 162° |
| 2026-04-25 15:54 | 49.35689 | -2.49874 | 5374 ft | 272 kts | 162° |
| 2026-04-25 15:54 | 49.33920 | -2.48987 | 5187 ft | 263 kts | 162° |
| 2026-04-25 15:54 | 49.32194 | -2.48122 | 4934 ft | 259 kts | 162° |
| 2026-04-25 15:55 | 49.30489 | -2.47267 | 4681 ft | 256 kts | 162° |
| 2026-04-25 15:55 | 49.28811 | -2.46416 | 4422 ft | 253 kts | 162° |
| 2026-04-25 15:55 | 49.27143 | -2.45567 | 4169 ft | 251 kts | 162° |
| 2026-04-25 15:55 | 49.25494 | -2.44730 | 3919 ft | 248 kts | 162° |
| 2026-04-25 15:56 | 49.23866 | -2.43909 | 3667 ft | 245 kts | 162° |
| 2026-04-25 15:56 | 49.22261 | -2.43099 | 3420 ft | 242 kts | 162° |
| 2026-04-25 15:56 | 49.20673 | -2.42296 | 3170 ft | 239 kts | 162° |
| 2026-04-25 15:56 | 49.19635 | -2.41776 | 2998 ft | 235 kts | 162° |
| 2026-04-25 15:57 | 49.18253 | -2.40766 | 2867 ft | 204 kts | 136° |
| 2026-04-25 15:57 | 49.17681 | -2.38987 | 2722 ft | 185 kts | 93° |
| 2026-04-25 15:57 | 49.18039 | -2.37106 | 2484 ft | 187 kts | 64° |
| 2026-04-25 15:57 | 49.18598 | -2.35298 | 2235 ft | 186 kts | 66° |
| 2026-04-25 15:58 | 49.19079 | -2.33526 | 1997 ft | 174 kts | 70° |
| 2026-04-25 15:58 | 49.19461 | -2.31823 | 1767 ft | 165 kts | 73° |
| 2026-04-25 15:58 | 49.19776 | -2.30162 | 1545 ft | 160 kts | 75° |
| 2026-04-25 15:58 | 49.20049 | -2.28541 | 1338 ft | 156 kts | 77° |
| 2026-04-25 15:59 | 49.20209 | -2.26931 | 1136 ft | 147 kts | 84° |
| 2026-04-25 15:59 | 49.20304 | -2.25457 | 938 ft | 133 kts | 85° |
| 2026-04-25 15:59 | 49.20404 | -2.24113 | 767 ft | 124 kts | 84° |
| 2026-04-25 15:59 | 49.20527 | -2.22835 | 581 ft | 120 kts | 81° |
| 2026-04-25 16:00 | 49.20639 | -2.21584 | 427 ft | 118 kts | 85° |
| 2026-04-25 16:00 | 49.20697 | -2.20780 | 332 ft | 109 kts | 85° |
| 2026-04-25 16:00 | 49.20805 | -2.19493 | 281 ft | 50 kts | 82° |
| 2026-04-25 16:00 | 49.20819 | -2.19190 | 280 ft | 24 kts | 94° |
| 2026-04-25 16:01 | 49.20781 | -2.18978 | 279 ft | 18 kts | 110° |
| 2026-04-25 16:01 | 49.20731 | -2.18846 | 279 ft | 10 kts | 166° |
| 2026-04-25 16:01 | 49.20699 | -2.18914 | 279 ft | 9 kts | 262° |
| 2026-04-25 16:01 | 49.20690 | -2.19023 | 279 ft | 11 kts | 263° |
| 2026-04-25 16:02 | 49.20679 | -2.19146 | 277 ft | 14 kts | 262° |
| 2026-04-25 16:02 | 49.20695 | -2.19294 | 277 ft | 14 kts | 285° |
| 2026-04-25 16:02 | 49.20709 | -2.19443 | 277 ft | 14 kts | 258° |
| 2026-04-25 16:02 | 49.20690 | -2.19590 | 277 ft | 14 kts | 253° |
| 2026-04-25 16:03 | 49.20624 | -2.19686 | 276 ft | 13 kts | 221° |
| 2026-04-25 16:03 | 49.20609 | -2.19803 | 276 ft | 13 kts | 265° |
| 2026-04-25 16:03 | 49.20589 | -2.19924 | 276 ft | 9 kts | 218° |
| 2026-04-25 16:03 | 49.20536 | -2.19927 | 276 ft | 6 kts | 175° |
| 2026-04-25 16:04 | 49.20486 | -2.19920 | 276 ft | 12 kts | 173° |
| 2026-04-25 16:04 | 49.20437 | -2.19862 | 276 ft | 7 kts | 89° |
| 2026-04-25 16:04 | 49.20483 | -2.19846 | 276 ft | 7 kts | 351° |
| 2026-04-25 16:04 | 49.20492 | -2.19848 | 276 ft | 0 kts | 352° |